createdAt,value
2018-03-04T00:00:16.531Z,61.60
2018-03-04T00:02:44.129Z,61.07
2018-03-04T00:05:11.768Z,56.93
2018-03-04T00:07:39.425Z,59.10
2018-03-04T00:10:07.076Z,55.97
2018-03-04T00:12:34.669Z,61.10
2018-03-04T00:15:02.299Z,66.87
2018-03-04T00:17:29.951Z,68.07
2018-03-04T00:19:57.627Z,65.27
2018-03-04T00:22:37.089Z,64.93
2018-03-04T00:25:04.717Z,62.33
2018-03-04T00:27:32.287Z,67.97
2018-03-04T00:29:59.943Z,65.57
2018-03-04T00:32:27.583Z,63.83
2018-03-04T00:34:55.152Z,66.17
2018-03-04T00:37:22.782Z,66.07
2018-03-04T00:39:50.443Z,65.60
2018-03-04T00:42:18.006Z,63.70
2018-03-04T00:44:45.606Z,68.90
2018-03-04T00:47:13.226Z,66.40
2018-03-04T00:49:40.823Z,67.47
2018-03-04T00:52:08.462Z,68.80
2018-03-04T00:54:36.086Z,80.67
2018-03-04T00:57:03.653Z,76.93
2018-03-04T00:59:31.227Z,69.80
2018-03-04T01:01:58.810Z,61.80
2018-03-04T01:04:26.387Z,63.40
2018-03-04T01:06:54.272Z,59.30
2018-03-04T01:09:21.838Z,60.40
2018-03-04T01:11:49.514Z,56.03
2018-03-04T01:14:17.143Z,57.73
2018-03-04T01:16:44.777Z,60.67
2018-03-04T01:19:12.429Z,52.73
2018-03-04T01:21:40.071Z,53.47
2018-03-04T01:24:08.496Z,55.17
2018-03-04T01:26:36.067Z,55.10
2018-03-04T01:29:03.677Z,55.80
2018-03-04T01:31:31.254Z,56.07
2018-03-04T01:33:58.905Z,61.30
2018-03-04T01:36:26.513Z,65.23
2018-03-04T01:38:54.207Z,63.70
2018-03-04T01:41:21.814Z,62.37
2018-03-04T01:43:49.433Z,63.87
2018-03-04T01:46:17.008Z,60.57
2018-03-04T01:48:44.688Z,63.37
2018-03-04T01:51:12.528Z,60.07
2018-03-04T01:53:40.163Z,61.87
2018-03-04T01:56:07.787Z,60.60
2018-03-04T01:58:35.457Z,59.03
2018-03-04T02:01:03.122Z,58.97
2018-03-04T02:03:30.719Z,57.97
2018-03-04T02:05:58.443Z,59.07
2018-03-04T02:08:26.167Z,69.20
2018-03-04T02:10:53.794Z,71.00
2018-03-04T02:13:21.394Z,65.87
2018-03-04T02:15:49.095Z,75.47
2018-03-04T02:18:16.750Z,76.83
2018-03-04T02:20:44.367Z,73.47
2018-03-04T02:23:12.051Z,80.17
2018-03-04T02:25:40.663Z,79.90
2018-03-04T02:28:08.313Z,76.10
2018-03-04T02:30:35.890Z,79.10
2018-03-04T02:33:03.504Z,77.30
2018-03-04T02:35:31.154Z,78.80
2018-03-04T02:37:58.732Z,73.23
2018-03-04T02:40:26.536Z,73.47
2018-03-04T02:42:54.194Z,68.17
2018-03-04T02:45:21.802Z,64.03
2018-03-04T02:47:49.375Z,69.27
2018-03-04T02:50:16.992Z,65.50
2018-03-04T02:52:44.559Z,60.30
2018-03-04T02:55:12.200Z,59.63
2018-03-04T02:57:39.767Z,51.73
2018-03-04T03:00:07.443Z,49.07
2018-03-04T03:02:35.122Z,44.87
2018-03-04T03:05:02.728Z,46.60
2018-03-04T03:07:30.308Z,45.03
2018-03-04T03:09:57.894Z,45.50
2018-03-04T03:12:25.534Z,47.67
2018-03-04T03:14:53.114Z,45.70
2018-03-04T03:17:20.735Z,47.60
2018-03-04T03:19:48.294Z,42.03
2018-03-04T03:22:16.050Z,40.50
2018-03-04T03:24:43.699Z,41.97
2018-03-04T03:27:11.325Z,41.03
2018-03-04T03:29:38.891Z,70.47
2018-03-04T03:32:06.578Z,59.50
2018-03-04T03:34:34.252Z,38.87
2018-03-04T03:37:01.822Z,43.03
2018-03-04T03:39:29.415Z,40.60
2018-03-04T03:41:57.056Z,37.37
2018-03-04T03:44:24.608Z,33.83
2018-03-04T03:46:52.402Z,33.97
2018-03-04T03:49:19.998Z,33.20
2018-03-04T03:51:47.613Z,32.67
2018-03-04T03:54:15.174Z,31.87
2018-03-04T03:56:42.772Z,39.17
2018-03-04T03:59:10.482Z,53.57
2018-03-04T04:01:38.058Z,34.70
2018-03-04T04:04:05.759Z,53.70
2018-03-04T04:06:33.468Z,63.27
2018-03-04T04:09:01.169Z,41.97
2018-03-04T04:11:28.741Z,45.17
2018-03-04T04:13:56.371Z,42.70
2018-03-04T04:16:23.980Z,49.37
2018-03-04T04:18:51.714Z,42.57
2018-03-04T04:21:19.342Z,46.27
2018-03-04T04:23:46.949Z,48.00
2018-03-04T04:26:14.651Z,50.00
2018-03-04T04:28:42.344Z,44.87
2018-03-04T04:31:09.986Z,45.47
2018-03-04T04:33:37.594Z,46.27
2018-03-04T04:36:05.180Z,42.93
2018-03-04T04:38:32.870Z,47.90
2018-03-04T04:41:00.493Z,54.73
2018-03-04T04:43:28.124Z,49.90
2018-03-04T04:45:55.778Z,49.03
2018-03-04T04:48:23.531Z,51.07
2018-03-04T04:50:51.169Z,45.10
2018-03-04T04:53:18.823Z,43.50
2018-03-04T04:55:46.454Z,38.67
2018-03-04T04:58:14.036Z,39.53
2018-03-04T05:00:41.614Z,37.03
2018-03-04T05:03:09.183Z,38.57
2018-03-04T05:05:36.841Z,34.73
2018-03-04T05:08:04.533Z,35.70
2018-03-04T05:10:32.154Z,37.00
2018-03-04T05:12:59.795Z,35.10
2018-03-04T05:15:27.382Z,37.67
2018-03-04T05:17:55.024Z,39.90
2018-03-04T05:20:22.629Z,38.60
2018-03-04T05:22:50.253Z,34.20
2018-03-04T05:25:17.880Z,35.83
2018-03-04T05:27:45.560Z,35.80
2018-03-04T05:30:13.217Z,36.00
2018-03-04T05:32:40.781Z,40.97
2018-03-04T05:35:08.399Z,40.97
2018-03-04T05:37:35.981Z,41.53
2018-03-04T05:40:03.610Z,40.60
2018-03-04T05:42:31.253Z,36.77
2018-03-04T05:44:58.911Z,39.67
2018-03-04T05:47:26.623Z,44.10
2018-03-04T05:49:54.197Z,37.83
2018-03-04T05:52:21.761Z,43.23
2018-03-04T05:54:50.206Z,45.03
2018-03-04T05:57:17.856Z,43.13
2018-03-04T05:59:45.487Z,46.70
2018-03-04T06:02:13.072Z,41.90
2018-03-04T06:04:40.700Z,47.10
2018-03-04T06:07:08.327Z,42.57
2018-03-04T06:09:35.976Z,45.60
2018-03-04T06:12:03.618Z,45.60
2018-03-04T06:14:31.182Z,40.33
2018-03-04T06:16:58.874Z,47.77
2018-03-04T06:19:26.484Z,37.27
2018-03-04T06:21:54.044Z,40.50
2018-03-04T06:24:21.613Z,43.77
2018-03-04T06:26:49.174Z,42.10
2018-03-04T06:29:16.751Z,43.10
2018-03-04T06:31:44.342Z,42.53
2018-03-04T06:34:12.016Z,39.87
2018-03-04T06:36:39.688Z,42.13
2018-03-04T06:39:07.295Z,41.30
2018-03-04T06:41:34.864Z,43.20
2018-03-04T06:44:02.492Z,40.27
2018-03-04T06:46:30.097Z,40.97
2018-03-04T06:48:57.751Z,42.07
2018-03-04T06:51:25.414Z,43.60
2018-03-04T06:53:53.095Z,40.37
2018-03-04T06:56:20.745Z,44.37
2018-03-04T06:58:48.329Z,42.33
2018-03-04T07:01:16.048Z,44.80
2018-03-04T07:03:43.665Z,42.80
2018-03-04T07:06:11.423Z,45.90
2018-03-04T07:08:39.110Z,46.17
2018-03-04T07:11:06.710Z,49.30
2018-03-04T07:13:34.274Z,55.73
2018-03-04T07:16:01.911Z,66.37
2018-03-04T07:18:29.598Z,67.83
2018-03-04T07:20:57.170Z,66.50
2018-03-04T07:23:24.738Z,56.60
2018-03-04T07:25:52.384Z,58.67
2018-03-04T07:28:19.963Z,52.93
2018-03-04T07:30:47.583Z,52.60
2018-03-04T07:33:15.243Z,69.97
2018-03-04T07:35:42.805Z,51.90
2018-03-04T07:38:10.478Z,50.57
2018-03-04T07:40:38.175Z,56.77
2018-03-04T07:43:05.783Z,42.70
2018-03-04T07:45:33.353Z,53.63
2018-03-04T07:48:00.916Z,54.20
2018-03-04T07:50:28.578Z,53.07
2018-03-04T07:52:56.197Z,56.40
2018-03-04T07:55:23.807Z,55.97
2018-03-04T07:57:51.377Z,52.40
2018-03-04T08:00:19.107Z,55.93
2018-03-04T08:02:46.695Z,52.10
2018-03-04T08:05:15.019Z,49.30
2018-03-04T08:07:42.586Z,56.00
2018-03-04T08:10:10.166Z,55.40
2018-03-04T08:12:37.796Z,51.80
2018-03-04T08:15:06.537Z,58.07
2018-03-04T08:17:34.123Z,49.53
2018-03-04T08:20:01.756Z,52.93
2018-03-04T08:22:29.347Z,49.07
2018-03-04T08:25:08.839Z,51.70
2018-03-04T08:27:48.118Z,49.83
2018-03-04T08:30:15.814Z,52.70
2018-03-04T08:32:43.446Z,49.77
2018-03-04T08:35:11.018Z,44.77
2018-03-04T08:37:38.601Z,46.70
2018-03-04T08:40:06.562Z,45.30
2018-03-04T08:42:34.207Z,49.20
2018-03-04T08:45:01.789Z,34.87
2018-03-04T08:47:29.466Z,38.37
2018-03-04T08:49:57.071Z,46.87
2018-03-04T08:52:24.695Z,41.97
2018-03-04T08:54:52.294Z,46.60
2018-03-04T08:57:20.943Z,42.87
2018-03-04T08:59:48.703Z,51.07
2018-03-04T09:02:16.380Z,60.43
2018-03-04T09:04:44.804Z,93.70
2018-03-04T09:07:12.431Z,50.23
2018-03-04T09:09:40.049Z,48.00
2018-03-04T09:12:07.691Z,44.53
2018-03-04T09:14:35.350Z,60.60
2018-03-04T09:17:02.998Z,49.00
2018-03-04T09:19:30.646Z,49.63
2018-03-04T09:21:58.366Z,45.43
2018-03-04T09:24:25.963Z,44.00
2018-03-04T09:26:54.404Z,47.80
2018-03-04T09:29:22.098Z,45.67
2018-03-04T09:31:49.682Z,49.40
2018-03-04T09:34:17.984Z,46.90
2018-03-04T09:36:45.674Z,47.70
2018-03-04T09:39:13.347Z,50.07
2018-03-04T09:41:41.031Z,54.43
2018-03-04T09:44:08.628Z,49.77
2018-03-04T09:46:36.189Z,56.33
2018-03-04T09:49:03.869Z,56.07
2018-03-04T09:51:31.479Z,55.07
2018-03-04T09:53:59.163Z,59.03
2018-03-04T09:56:26.836Z,52.97
2018-03-04T09:58:54.483Z,50.97
2018-03-04T10:01:22.094Z,52.80
2018-03-04T10:03:49.801Z,54.77
2018-03-04T10:06:17.422Z,52.33
2018-03-04T10:08:45.077Z,55.80
2018-03-04T10:11:12.654Z,57.37
2018-03-04T10:13:40.348Z,63.60
2018-03-04T10:16:07.971Z,57.70
2018-03-04T10:18:35.609Z,54.33
2018-03-04T10:21:03.190Z,58.90
2018-03-04T10:23:30.763Z,49.47
2018-03-04T10:25:58.405Z,50.97
2018-03-04T10:28:25.968Z,51.47
2018-03-04T10:30:53.648Z,53.90
2018-03-04T10:33:21.216Z,51.17
2018-03-04T10:35:48.802Z,65.97
2018-03-04T10:38:16.388Z,45.93
2018-03-04T10:40:43.955Z,47.30
2018-03-04T10:43:11.598Z,52.10
2018-03-04T10:45:39.623Z,58.13
2018-03-04T10:48:07.320Z,63.80
2018-03-04T10:50:34.942Z,62.73
2018-03-04T10:53:02.584Z,51.60
2018-03-04T10:55:30.169Z,50.40
2018-03-04T10:57:57.762Z,53.80
2018-03-04T11:00:25.350Z,44.80
2018-03-04T11:02:52.958Z,47.87
2018-03-04T11:05:20.615Z,48.93
2018-03-04T11:07:48.240Z,49.87
2018-03-04T11:10:15.860Z,47.93
2018-03-04T11:12:43.491Z,51.40
2018-03-04T11:15:11.072Z,52.50
2018-03-04T11:17:38.744Z,51.20
2018-03-04T11:20:06.313Z,43.43
2018-03-04T11:22:33.997Z,54.60
2018-03-04T11:25:01.679Z,54.90
2018-03-04T11:27:29.244Z,48.90
2018-03-04T11:29:56.825Z,44.03
2018-03-04T11:32:24.465Z,44.37
2018-03-04T11:34:52.038Z,42.67
2018-03-04T11:37:19.612Z,47.77
2018-03-04T11:39:47.304Z,47.13
2018-03-04T11:42:14.862Z,44.33
2018-03-04T11:44:42.510Z,47.73
2018-03-04T11:47:10.160Z,41.90
2018-03-04T11:49:37.737Z,42.37
2018-03-04T11:52:05.315Z,43.53
2018-03-04T11:54:32.895Z,41.43
2018-03-04T11:57:00.565Z,47.87
2018-03-04T11:59:28.141Z,50.77
2018-03-04T12:01:55.812Z,51.87
2018-03-04T12:04:23.381Z,45.57
2018-03-04T12:06:50.981Z,51.60
2018-03-04T12:09:18.627Z,47.37
2018-03-04T12:11:46.185Z,52.53
2018-03-04T12:14:13.875Z,51.53
2018-03-04T12:16:41.503Z,53.47
2018-03-04T12:19:09.126Z,46.07
2018-03-04T12:21:36.719Z,50.37
2018-03-04T12:24:04.290Z,47.57
2018-03-04T12:26:31.865Z,53.20
2018-03-04T12:28:59.429Z,51.47
2018-03-04T12:31:27.052Z,51.07
2018-03-04T12:33:54.680Z,53.37
2018-03-04T12:36:22.314Z,61.07
2018-03-04T12:38:49.891Z,49.27
2018-03-04T12:41:17.546Z,53.20
2018-03-04T12:45:40.690Z,55.57
2018-03-04T12:48:08.313Z,58.10
2018-03-04T12:50:35.890Z,57.60
2018-03-04T12:53:03.508Z,53.10
2018-03-04T12:55:31.175Z,52.60
2018-03-04T12:57:58.748Z,51.73
2018-03-04T13:00:26.345Z,53.50
2018-03-04T13:02:53.914Z,61.37
2018-03-04T13:05:21.526Z,50.27
2018-03-04T13:07:49.127Z,50.93
2018-03-04T13:10:16.766Z,48.70
2018-03-04T13:12:44.379Z,43.97
2018-03-04T13:15:11.954Z,47.50
2018-03-04T13:17:39.535Z,52.27
2018-03-04T13:20:07.163Z,62.03
2018-03-04T13:22:34.795Z,47.70
2018-03-04T13:25:02.393Z,55.47
2018-03-04T13:27:29.965Z,53.57
2018-03-04T13:29:57.607Z,53.97
2018-03-04T13:32:25.231Z,51.13
2018-03-04T13:34:52.810Z,53.50
2018-03-04T13:37:20.366Z,59.03
2018-03-04T13:39:47.986Z,58.83
2018-03-04T13:42:15.562Z,60.20
2018-03-04T13:44:43.114Z,56.73
2018-03-04T13:47:10.695Z,64.67
2018-03-04T13:49:38.268Z,69.17
2018-03-04T13:52:05.849Z,63.73
2018-03-04T13:54:33.415Z,70.23
2018-03-04T13:57:01.042Z,78.87
2018-03-04T13:59:28.622Z,82.10
2018-03-04T14:01:56.202Z,74.70
2018-03-04T14:04:23.783Z,63.17
2018-03-04T14:06:51.412Z,59.60
2018-03-04T14:09:18.971Z,50.73
2018-03-04T14:11:46.597Z,51.57
2018-03-04T14:14:14.218Z,56.00
2018-03-04T14:16:41.792Z,61.90
2018-03-04T14:19:09.369Z,58.53
2018-03-04T14:21:36.942Z,75.50
2018-03-04T14:24:04.511Z,70.53
2018-03-04T14:26:32.207Z,67.97
2018-03-04T14:28:59.772Z,63.87
2018-03-04T14:31:27.398Z,68.80
2018-03-04T14:33:55.024Z,60.53
2018-03-04T14:36:22.592Z,56.83
2018-03-04T14:38:50.224Z,58.20
2018-03-04T14:41:17.869Z,55.90
2018-03-04T14:43:45.442Z,56.67
2018-03-04T14:46:12.999Z,54.20
2018-03-04T14:48:40.566Z,56.37
2018-03-04T14:51:08.196Z,60.87
2018-03-04T14:53:35.760Z,58.60
2018-03-04T14:56:03.345Z,59.70
2018-03-04T14:58:30.931Z,54.00
2018-03-04T15:00:58.500Z,58.33
2018-03-04T15:03:26.138Z,62.03
2018-03-04T15:05:53.711Z,61.07
2018-03-04T15:08:21.344Z,60.40
2018-03-04T15:10:48.922Z,57.60
2018-03-04T15:13:16.521Z,59.80
2018-03-04T15:15:44.109Z,64.20
2018-03-04T15:18:11.685Z,58.50
2018-03-04T15:20:39.302Z,63.37
2018-03-04T15:23:06.937Z,65.80
2018-03-04T15:25:34.497Z,61.67
2018-03-04T15:28:02.141Z,62.07
2018-03-04T15:30:29.769Z,64.20
2018-03-04T15:32:57.416Z,63.37
2018-03-04T15:35:24.979Z,65.00
2018-03-04T15:37:52.603Z,62.17
2018-03-04T15:40:20.176Z,65.47
2018-03-04T15:42:47.745Z,56.73
2018-03-04T15:45:15.312Z,56.07
2018-03-04T15:47:42.905Z,72.90
2018-03-04T15:50:10.514Z,59.23
2018-03-04T15:52:38.181Z,55.33
2018-03-04T15:55:05.835Z,55.10
2018-03-04T15:57:33.420Z,56.73
2018-03-04T16:00:01.009Z,53.07
2018-03-04T16:02:28.602Z,57.77
2018-03-04T16:04:56.197Z,67.27
2018-03-04T16:07:23.799Z,61.40
2018-03-04T16:09:51.370Z,58.67
2018-03-04T16:12:19.049Z,50.40
2018-03-04T16:14:46.626Z,58.70
2018-03-04T16:17:14.204Z,57.40
2018-03-04T16:19:41.842Z,46.67
2018-03-04T16:22:09.410Z,53.90
2018-03-04T16:24:36.999Z,52.77
2018-03-04T16:27:04.633Z,51.07
2018-03-04T16:29:32.253Z,42.20
2018-03-04T16:31:59.844Z,43.17
2018-03-04T16:34:27.474Z,42.00
2018-03-04T16:36:55.052Z,42.00
2018-03-04T16:39:22.778Z,44.27
2018-03-04T16:41:50.425Z,42.03
2018-03-04T16:44:18.068Z,43.87
2018-03-04T16:46:45.695Z,41.40
2018-03-04T16:49:13.283Z,44.10
2018-03-04T16:51:40.851Z,43.77
2018-03-04T16:54:08.487Z,41.13
2018-03-04T16:56:36.111Z,42.60
2018-03-04T16:59:03.748Z,44.13
2018-03-04T17:01:31.429Z,40.17
2018-03-04T17:03:59.118Z,42.70
2018-03-04T17:06:26.697Z,43.17
2018-03-04T17:08:54.288Z,46.60
2018-03-04T17:11:21.940Z,50.90
2018-03-04T17:13:49.518Z,47.50
2018-03-04T17:16:17.085Z,45.00
2018-03-04T17:18:44.711Z,46.10
2018-03-04T17:21:12.334Z,42.30
2018-03-04T17:23:39.963Z,44.70
2018-03-04T17:26:07.546Z,42.87
2018-03-04T17:28:35.112Z,43.20
2018-03-04T17:31:02.673Z,42.20
2018-03-04T17:33:30.271Z,41.27
2018-03-04T17:35:59.174Z,44.37
2018-03-04T17:38:26.859Z,48.00
2018-03-04T17:40:54.426Z,59.70
2018-03-04T17:43:22.046Z,59.97
2018-03-04T17:45:49.722Z,59.70
2018-03-04T17:48:17.367Z,59.70
2018-03-04T17:50:44.972Z,61.83
2018-03-04T17:53:12.615Z,53.33
2018-03-04T17:55:40.349Z,57.00
2018-03-04T17:58:07.934Z,55.23
2018-03-04T18:00:35.516Z,47.97
2018-03-04T18:03:03.169Z,49.87
2018-03-04T18:05:30.837Z,47.13
2018-03-04T18:07:58.414Z,51.50
2018-03-04T18:10:25.988Z,93.53
2018-03-04T18:12:53.616Z,53.50
2018-03-04T18:15:21.191Z,51.73
2018-03-04T18:17:48.837Z,51.20
2018-03-04T18:20:16.411Z,53.90
2018-03-04T18:22:43.979Z,57.33
2018-03-04T18:25:11.646Z,56.00
2018-03-04T18:27:39.227Z,65.63
2018-03-04T18:30:06.855Z,70.53
2018-03-04T18:32:34.488Z,67.53
2018-03-04T18:35:02.172Z,63.47
2018-03-04T18:37:29.759Z,61.90
2018-03-04T18:39:57.344Z,63.60
2018-03-04T18:42:24.993Z,63.60
2018-03-04T18:44:52.539Z,58.20
2018-03-04T18:47:20.187Z,60.77
2018-03-04T18:49:47.762Z,63.40
2018-03-04T18:52:15.341Z,55.80
2018-03-04T18:54:42.979Z,61.60
2018-03-04T18:57:10.552Z,63.13
2018-03-04T18:59:38.131Z,62.83
2018-03-04T19:02:05.699Z,66.00
2018-03-04T19:04:33.347Z,53.90
2018-03-04T19:07:00.911Z,55.60
2018-03-04T19:09:28.475Z,53.27
2018-03-04T19:11:56.054Z,64.10
2018-03-04T19:14:23.637Z,71.77
2018-03-04T19:16:51.210Z,64.60
2018-03-04T19:19:18.798Z,60.80
2018-03-04T19:21:46.362Z,64.83
2018-03-04T19:24:13.949Z,66.50
2018-03-04T19:26:41.523Z,85.20
2018-03-04T19:29:09.197Z,84.93
2018-03-04T19:31:36.828Z,70.07
2018-03-04T19:34:04.398Z,73.10
2018-03-04T19:36:32.031Z,86.40
2018-03-04T19:38:59.604Z,114.43
2018-03-04T19:41:27.256Z,98.70
2018-03-04T19:43:54.823Z,78.60
2018-03-04T19:46:22.453Z,75.20
2018-03-04T19:48:50.045Z,76.37
2018-03-04T19:51:17.678Z,70.13
2018-03-04T19:53:45.254Z,74.47
2018-03-04T19:56:12.822Z,74.80
2018-03-04T19:58:40.440Z,72.73
2018-03-04T20:01:08.068Z,73.57
2018-03-04T20:03:35.694Z,75.57
2018-03-04T20:06:03.331Z,74.33
2018-03-04T20:08:30.973Z,68.57
2018-03-04T20:10:58.666Z,68.17
2018-03-04T20:13:26.293Z,64.57
2018-03-04T20:15:53.922Z,63.03
2018-03-04T20:18:21.555Z,61.57
2018-03-04T20:20:49.140Z,63.30
2018-03-04T20:23:16.714Z,62.83
2018-03-04T20:25:44.360Z,64.90
2018-03-04T20:28:11.971Z,68.33
2018-03-04T20:30:39.603Z,71.73
2018-03-04T20:33:07.281Z,76.80
2018-03-04T20:35:34.852Z,75.17
2018-03-04T20:38:02.497Z,76.17
2018-03-04T20:40:30.183Z,76.87
2018-03-04T20:42:57.758Z,79.30
2018-03-04T20:45:25.400Z,81.63
2018-03-04T20:47:53.043Z,72.07
2018-03-04T20:50:20.629Z,74.03
2018-03-04T20:52:48.275Z,70.33
2018-03-04T20:55:15.909Z,67.57
2018-03-04T20:57:43.532Z,66.00
2018-03-04T21:00:11.263Z,69.47
2018-03-04T21:02:38.887Z,60.70
2018-03-04T21:05:06.523Z,59.20
2018-03-04T21:07:34.080Z,61.17
2018-03-04T21:10:01.716Z,59.87
2018-03-04T21:12:29.287Z,55.53
2018-03-04T21:14:57.022Z,59.00
2018-03-04T21:17:24.582Z,59.27
2018-03-04T21:19:52.149Z,57.27
2018-03-04T21:22:19.737Z,55.93
2018-03-04T21:24:47.353Z,53.03
2018-03-04T21:27:14.924Z,54.60
2018-03-04T21:29:42.496Z,53.60
2018-03-04T21:32:10.110Z,55.47
2018-03-04T21:34:37.747Z,54.70
2018-03-04T21:37:05.376Z,54.40
2018-03-04T21:39:33.019Z,52.67
2018-03-04T21:42:00.642Z,51.40
2018-03-04T21:44:28.263Z,50.00
2018-03-04T21:46:55.822Z,52.93
2018-03-04T21:49:23.516Z,48.53
2018-03-04T21:51:51.078Z,47.60
2018-03-04T21:54:18.647Z,50.80
2018-03-04T21:56:46.231Z,44.07
2018-03-04T21:59:13.796Z,47.80
2018-03-04T22:01:41.391Z,45.57
2018-03-04T22:04:08.962Z,43.53
2018-03-04T22:06:36.592Z,45.10
2018-03-04T22:09:04.292Z,45.33
2018-03-04T22:11:31.859Z,45.43
2018-03-04T22:13:59.415Z,44.23
2018-03-04T22:16:26.974Z,50.77
2018-03-04T22:18:54.614Z,47.67
2018-03-04T22:21:22.243Z,46.40
2018-03-04T22:23:49.859Z,45.10
2018-03-04T22:26:17.422Z,46.03
2018-03-04T22:28:44.993Z,47.33
2018-03-04T22:31:12.581Z,46.30
2018-03-04T22:33:40.151Z,46.17
2018-03-04T22:36:07.784Z,47.33
2018-03-04T22:38:35.414Z,46.83
2018-03-04T22:41:03.052Z,45.73
2018-03-04T22:43:30.622Z,46.80
2018-03-04T22:45:58.191Z,46.10
2018-03-04T22:48:25.814Z,47.03
2018-03-04T22:50:53.382Z,47.40
2018-03-04T22:53:20.956Z,45.97
2018-03-04T22:55:48.518Z,45.87
2018-03-04T22:58:16.139Z,48.10
2018-03-04T23:00:43.715Z,46.63
2018-03-04T23:03:11.283Z,47.17
2018-03-04T23:05:38.860Z,44.93
2018-03-04T23:08:06.440Z,43.60
2018-03-04T23:10:34.021Z,45.90
2018-03-04T23:13:01.638Z,46.23
2018-03-04T23:15:29.254Z,44.40
2018-03-04T23:17:56.821Z,46.43
2018-03-04T23:20:24.444Z,47.87
2018-03-04T23:22:52.036Z,51.97
2018-03-04T23:25:19.602Z,50.43
2018-03-04T23:27:47.295Z,54.67
2018-03-04T23:30:14.860Z,50.77
2018-03-04T23:32:42.431Z,47.97
2018-03-04T23:35:10.076Z,53.13
2018-03-04T23:37:37.706Z,55.40
2018-03-04T23:40:05.399Z,73.57
2018-03-04T23:42:32.965Z,51.47
2018-03-04T23:45:00.532Z,72.67
2018-03-04T23:47:28.105Z,55.10
2018-03-04T23:49:55.702Z,49.07
2018-03-04T23:52:23.382Z,49.03
2018-03-04T23:54:50.947Z,48.10
2018-03-04T23:57:18.590Z,48.10
2018-03-04T23:59:46.222Z,49.17
